Date,TemperatureHighF,TemperatureAvgF,TemperatureLowF,DewpointHighF,DewpointAvgF,DewpointLowF,HumidityHigh,HumidityAvg,HumidityLow,PressureMaxIn,PressureMinIn,WindSpeedMaxMPH,WindSpeedAvgMPH,GustSpeedMaxMPH,PrecipitationSumIn
2014-1-1,68.2,48.4,33.4,47.5,34.9,24.6,77,61,45,30.22,29.88,17,3,17,0.00
2014-1-2,40.6,32.3,24.4,24.6,19.2,16.3,74,59,41,30.50,30.22,15,3,18,0.00
2014-1-3,51.3,40.1,28.6,25.5,22.4,18.9,73,50,33,30.48,30.04,10,2,11,0.00
2014-1-4,68.4,53.6,40.5,52.0,42.8,24.6,88,68,49,30.04,29.73,21,3,23,0.00
2014-1-5,51.1,32.3,19.9,36.0,19.9,6.8,78,61,45,30.58,29.77,14,5,18,0.00
2014-1-6,32.2,22.4,14.4,10.0,5.6,2.1,60,49,33,30.80,30.59,10,2,13,0.00
2014-1-7,47.7,37.2,21.7,17.4,13.0,10.4,62,38,25,30.58,30.30,12,2,13,0.00
2014-1-8,46.9,42.1,38.1,46.2,36.8,16.5,97,84,39,30.30,30.12,12,2,12,0.09
2014-1-9,69.6,43.0,38.8,46.2,42.1,38.1,98,97,93,30.22,30.00,12,1,12,0.12
2014-1-10,67.6,57.5,45.9,63.1,53.9,39.4,99,88,64,30.00,29.66,13,2,13,0.16
2014-1-11,70.0,52.9,38.1,41.4,34.0,26.8,90,55,22,30.11,29.82,17,2,17,0.00
2014-1-12,74.3,59.3,48.4,55.0,38.4,26.4,80,48,24,30.04,29.77,22,4,24,0.00
2014-1-13,63.9,55.4,45.1,56.8,33.6,19.4,88,47,21,30.07,29.77,19,4,19,0.00
2014-1-14,67.6,50.2,39.7,36.1,26.3,19.9,52,40,22,30.35,30.00,25,3,25,0.00
2014-1-15,57.9,44.9,33.1,26.8,24.4,21.0,69,46,28,30.42,30.09,12,2,12,0.00
2014-1-16,66.0,51.3,38.8,35.1,27.6,16.2,67,42,25,30.20,30.01,17,3,19,0.00
2014-1-17,55.6,47.9,41.5,18.3,15.5,12.2,36,28,19,30.38,30.19,16,3,17,0.00
2014-1-18,70.2,51.4,38.5,31.3,25.7,17.2,52,38,21,30.20,30.03,16,3,16,0.03
2014-1-19,65.1,51.0,36.1,31.6,28.2,25.0,77,44,24,30.31,30.05,14,4,14,0.00
2014-1-20,73.6,57.7,46.8,40.3,32.9,25.0,55,40,25,30.22,29.84,25,6,25,0.00
2014-1-21,52.5,43.4,37.9,26.1,17.0,10.6,46,35,24,30.45,30.18,26,7,26,0.00
2014-1-22,61.0,46.2,34.7,29.1,23.4,15.3,58,41,29,30.19,30.05,23,6,23,0.00
2014-1-23,44.1,32.9,23.4,23.4,10.1,-2.2,53,39,27,30.80,30.18,30,12,30,0.00
2014-1-24,41.4,29.5,17.8,13.6,4.8,-1.1,53,36,19,30.79,30.26,16,4,16,0.00
2014-1-25,67.5,47.6,29.5,34.9,25.8,13.6,65,44,27,30.27,29.98,12,3,12,0.00
2014-1-26,72.7,59.4,49.3,39.4,35.7,31.8,65,42,27,29.98,29.63,14,5,18,0.00
2014-1-27,50.4,36.1,24.4,38.1,7.8,-4.0,69,32,18,30.38,29.76,41,12,41,0.00
2014-1-28,36.0,27.6,22.3,15.8,6.6,-2.0,57,41,31,30.55,30.37,21,-4,21,0.00
2014-1-29,48.6,33.9,21.2,18.7,13.0,9.7,75,46,22,30.50,30.19,21,5,23,0.00
2014-1-30,58.6,45.0,31.1,47.3,30.4,13.1,85,57,42,30.20,29.83,27,11,37,0.00
2014-1-31,74.5,63.2,51.4,59.4,53.0,47.3,88,71,46,29.87,29.72,27,9,27,0.00
2014-2-1,65.5,49.6,37.9,59.2,41.4,28.9,83,73,61,30.04,29.73,20,8,26,0.00
2014-2-2,37.9,32.5,28.9,31.5,28.4,25.5,93,85,71,30.29,30.02,27,9,27,0.22
2014-2-3,43.0,35.2,29.1,35.8,30.3,24.6,87,82,73,30.32,30.05,13,3,13,0.00
2014-2-4,46.0,41.0,37.6,41.5,37.8,33.4,96,88,77,30.14,29.89,24,5,25,0.19
2014-2-5,37.6,28.4,21.6,33.6,19.7,13.6,86,70,59,30.57,30.14,28,11,28,0.00
2014-2-6,24.1,20.5,16.2,18.5,14.3,8.6,87,77,67,30.64,30.45,21,6,21,0.00
2014-2-7,32.4,28.1,22.8,28.9,22.3,16.3,90,79,71,30.46,30.25,11,3,12,0.02
2014-2-8,53.4,40.1,31.3,41.0,35.3,28.8,94,84,60,30.26,30.02,18,6,18,0.02
2014-2-9,45.9,41.3,36.3,42.6,39.4,34.5,97,93,87,30.16,30.03,17,4,17,0.00
2014-2-10,36.3,31.9,29.5,34.5,30.5,27.9,96,95,94,30.32,30.15,17,7,17,0.02
2014-2-11,36.0,31.2,27.5,28.9,26.3,23.2,94,82,72,30.38,30.26,16,6,17,0.00
2014-2-12,50.2,39.3,30.2,32.4,28.7,25.2,85,67,45,30.27,30.06,14,4,15,0.00
2014-2-13,67.5,49.5,32.4,40.5,35.3,28.8,88,62,32,30.08,29.86,19,5,20,0.00
2014-2-14,70.9,56.2,45.1,40.6,34.7,22.3,77,48,17,30.10,29.72,25,7,28,0.00
2014-2-15,69.4,53.1,39.2,37.0,31.5,26.8,70,46,25,30.15,29.98,24,5,24,0.00
2014-2-16,75.6,62.0,49.5,58.5,51.4,36.5,95,70,47,30.04,29.85,26,8,27,0.00
2014-2-17,73.8,64.4,52.0,59.7,40.0,25.3,95,49,17,30.13,29.84,28,7,29,0.00
2014-2-18,81.7,64.9,47.7,59.7,44.8,29.1,77,49,31,30.10,29.81,24,6,25,0.00
2014-2-19,69.3,65.5,61.5,62.1,61.0,59.2,96,86,77,29.89,29.61,30,8,33,0.00
2014-2-20,72.3,62.8,45.7,62.6,46.0,27.7,84,58,29,30.10,29.59,25,10,32,0.00
2014-2-21,68.9,53.9,38.8,32.0,26.4,15.8,69,38,18,30.18,29.99,20,5,20,0.00
2014-2-22,75.6,62.9,50.4,53.1,41.6,24.6,72,46,35,30.01,29.80,24,8,25,0.00
2014-2-23,71.1,59.5,49.5,58.5,49.6,37.6,95,71,51,30.12,29.84,24,7,24,0.00
2014-2-24,55.8,50.4,43.5,45.7,41.1,37.4,80,71,62,30.19,30.04,14,4,14,0.00
2014-2-25,53.1,48.7,41.5,45.7,41.1,28.2,94,76,49,30.16,30.03,21,7,21,0.07
2014-2-26,42.8,36.8,30.2,32.7,20.2,15.1,70,52,36,30.35,30.16,24,9,29,0.00
2014-2-27,57.6,42.8,27.5,31.1,24.0,19.4,77,50,28,30.19,29.86,20,4,20,0.07
2014-2-28,83.8,60.0,42.8,52.5,41.3,31.1,80,55,17,29.87,29.65,29,9,29,0.00
2014-3-1,82.8,65.7,51.4,64.0,57.0,49.6,97,76,41,29.96,29.81,25,7,25,0.00
2014-3-2,69.4,29.5,19.8,63.0,25.7,13.6,91,86,73,30.38,29.91,30,12,32,0.03
2014-3-3,34.0,24.1,15.6,19.9,15.0,9.5,81,69,55,30.53,30.34,26,8,26,0.00
2014-3-4,52.0,37.1,26.4,32.7,25.0,17.1,79,63,39,30.37,30.04,14,4,14,0.02
2014-3-5,56.5,45.0,34.0,36.1,32.1,29.8,86,63,42,30.20,29.96,22,5,22,0.01
2014-3-6,54.3,45.4,39.9,39.4,37.4,36.0,89,74,54,30.27,30.06,14,5,19,0.00
2014-3-7,67.5,53.4,41.7,46.8,40.1,36.3,84,63,38,30.06,29.82,26,9,26,0.00
2014-3-8,56.5,48.1,38.5,51.1,42.3,33.6,87,81,70,30.32,29.86,24,9,24,0.00
2014-3-9,63.0,48.6,37.0,44.4,38.4,32.9,86,69,50,30.37,30.19,16,4,18,0.00
2014-3-10,79.0,61.7,46.4,55.9,45.6,39.0,88,61,26,30.19,29.84,18,6,20,0.00
2014-3-11,82.0,67.9,56.8,58.5,54.5,37.8,91,65,39,29.84,29.48,28,8,28,0.00
2014-3-12,61.9,53.0,44.2,38.3,28.8,20.8,65,42,21,30.28,29.80,25,11,34,0.00
2014-3-13,70.5,55.6,39.2,31.6,28.4,24.4,66,39,20,30.33,30.05,22,5,22,0.00
2014-3-14,74.1,60.7,48.4,53.8,45.7,31.3,80,59,38,30.06,29.93,27,8,32,0.00
2014-3-15,67.3,61.1,54.0,61.9,57.3,52.5,96,88,69,29.97,29.65,34,7,34,1.06
2014-3-16,55.0,46.7,40.8,53.1,41.1,32.9,97,81,71,30.08,29.75,26,11,33,0.00
2014-3-17,63.3,48.9,35.8,34.2,29.7,23.2,80,51,25,30.07,29.71,22,6,22,0.00
2014-3-18,83.3,64.6,49.5,49.5,39.3,30.2,62,41,23,29.86,29.55,32,12,32,0.00
2014-3-19,65.8,55.6,44.4,39.0,33.9,29.7,64,45,27,30.21,29.86,21,6,21,0.00
2014-3-20,74.3,58.8,42.6,38.7,32.5,26.4,71,41,18,30.23,29.99,16,4,16,0.00
2014-3-21,81.5,67.9,55.0,59.5,49.2,31.5,72,52,34,30.00,29.77,29,9,32,0.00
2014-3-22,68.5,59.7,50.5,59.5,48.6,41.5,86,68,49,30.11,29.88,19,6,19,0.00
2014-3-23,59.0,52.0,45.7,44.8,33.0,26.1,74,49,38,30.37,30.10,26,8,28,0.00
2014-3-24,68.9,54.8,41.2,41.2,34.6,26.8,67,47,34,30.26,30.03,17,4,18,0.00
2014-3-25,65.1,53.7,41.5,40.1,29.3,23.7,68,41,24,30.40,30.15,23,6,23,0.00
2014-3-26,61.0,53.4,47.5,50.7,38.7,28.4,76,58,42,30.22,29.90,34,11,34,0.03
2014-3-27,81.7,67.2,57.4,66.6,60.3,50.5,96,80,57,29.90,29.64,29,10,31,0.04
2014-3-28,80.2,67.6,53.2,67.8,59.8,41.7,94,77,52,30.05,29.70,26,6,26,0.00
2014-3-29,75.0,59.5,44.6,45.1,38.8,31.8,82,51,22,30.29,30.05,16,5,20,0.00
2014-3-30,79.9,66.6,54.7,47.5,39.3,33.1,53,38,25,30.21,29.93,28,9,28,0.00
2014-3-31,81.7,68.4,57.6,59.2,54.9,46.2,82,63,46,29.94,29.79,29,10,31,0.00
2014-4-1,84.6,73.0,65.1,66.4,62.3,58.6,87,70,48,29.95,29.80,23,8,24,0.00
2014-4-2,82.9,74.7,70.0,69.8,67.1,65.7,88,78,59,29.82,29.65,29,9,32,0.00
2014-4-3,85.5,74.9,61.2,69.3,66.8,48.2,93,77,58,29.83,29.56,33,9,34,0.11
2014-4-4,67.5,56.4,45.1,48.4,36.0,30.4,69,48,28,30.19,29.83,30,8,30,0.00
2014-4-5,56.7,53.5,51.1,43.5,37.9,30.9,75,56,45,30.15,29.94,19,6,20,0.00
2014-4-6,52.2,49.1,46.0,50.7,46.2,42.6,96,90,75,29.99,29.76,20,7,21,0.53
2014-4-7,67.8,55.2,46.6,51.6,48.5,43.5,98,80,48,30.00,29.80,36,4,36,0.02
2014-4-8,70.5,59.0,48.9,48.6,39.7,32.5,86,53,25,30.16,29.99,32,9,33,0.00
2014-4-9,82.8,66.5,50.4,47.7,42.5,38.5,70,45,24,30.22,29.98,24,6,26,0.00
2014-4-10,85.5,72.5,59.9,57.2,52.9,46.8,77,52,34,29.98,29.80,34,11,35,0.00
2014-4-11,84.0,72.1,62.2,64.6,59.7,54.0,86,66,50,29.98,29.85,27,8,27,0.00
2014-4-12,83.8,73.8,66.0,63.3,61.3,59.5,82,66,49,29.91,29.71,34,11,34,0.00
2014-4-13,78.4,70.2,66.0,69.8,64.8,60.6,96,84,67,29.78,29.52,32,10,34,0.39
2014-4-14,69.6,49.1,43.5,63.5,38.4,30.7,83,67,48,30.27,29.66,26,12,32,0.00
2014-4-15,65.7,50.9,34.5,32.5,26.9,17.2,86,44,18,30.34,30.12,16,4,17,0.00
2014-4-16,70.0,57.3,45.7,43.9,36.8,30.9,63,47,33,30.12,29.92,29,9,31,0.00
2014-4-17,64.2,58.2,51.3,55.8,50.1,40.6,89,75,56,30.19,30.01,14,6,16,0.02
2014-4-18,79.2,65.9,56.7,55.6,50.9,45.1,94,63,33,30.24,30.09,14,3,14,0.02
2014-4-19,80.4,69.1,59.2,57.4,53.0,47.7,78,58,40,30.18,30.05,17,5,17,0.00
2014-4-20,81.3,69.2,62.4,61.5,56.8,50.0,95,67,40,30.11,30.00,22,5,25,0.23
2014-4-21,83.1,70.4,61.9,68.0,63.1,60.1,96,79,55,30.04,29.88,18,5,18,0.21
2014-4-22,85.5,72.7,60.3,63.9,58.9,51.8,96,66,35,30.05,29.89,15,4,16,0.00
2014-4-23,88.3,76.0,64.6,63.9,59.7,53.8,78,58,41,29.92,29.68,27,7,27,0.00
2014-4-24,82.9,74.2,67.1,65.8,56.8,43.0,83,58,30,29.92,29.70,28,9,28,0.00
2014-4-25,85.5,72.5,58.8,45.0,41.3,33.3,55,34,21,30.03,29.84,18,7,19,0.00
2014-4-26,84.0,74.1,63.9,69.3,60.9,41.9,82,65,36,29.85,29.59,31,10,31,0.00
2014-4-27,91.6,80.0,72.1,72.1,58.0,31.5,90,56,17,29.60,29.35,31,9,31,0.02
2014-4-28,81.9,73.7,63.5,49.8,40.3,28.8,44,31,15,29.67,29.46,20,6,20,0.00
2014-4-29,76.3,66.4,56.8,46.9,39.0,34.0,53,38,23,29.94,29.61,31,9,31,0.00
2014-4-30,67.5,58.4,49.5,40.5,36.2,29.3,63,45,26,30.16,29.94,30,8,30,0.00
2014-5-1,74.1,61.5,45.3,41.5,35.7,30.2,80,43,22,30.17,30.01,20,4,21,0.00
2014-5-2,81.7,68.3,54.1,43.0,36.8,29.1,62,34,16,30.03,29.88,23,4,23,0.00
2014-5-3,90.0,73.8,55.8,49.3,40.6,30.2,59,34,15,30.02,29.92,15,3,16,0.00
2014-5-4,93.9,79.4,65.8,50.5,44.1,38.8,44,30,15,29.99,29.85,31,8,31,0.00
2014-5-5,91.2,77.2,63.1,60.8,52.9,39.9,63,44,33,29.89,29.71,28,8,28,0.00
2014-5-6,88.2,76.9,64.9,65.8,61.7,57.6,83,60,46,29.77,29.63,32,10,32,0.00
2014-5-7,84.4,75.9,69.3,67.8,65.0,61.5,82,69,56,29.80,29.69,35,11,37,0.00
2014-5-8,75.6,69.2,64.0,71.6,66.0,62.2,97,90,74,29.87,29.66,25,6,25,0.55
2014-5-9,89.1,76.5,64.4,71.4,64.2,52.0,98,71,29,29.88,29.75,19,4,22,0.00
2014-5-10,89.1,77.4,66.0,69.6,64.7,59.9,82,66,47,29.88,29.72,27,8,28,0.00
2014-5-11,88.5,79.3,72.9,70.7,69.0,67.3,87,72,53,29.79,29.65,30,11,32,0.00
2014-5-12,82.8,71.8,58.5,73.9,67.1,56.1,96,86,72,30.03,29.67,30,9,32,1.07
2014-5-13,68.7,60.4,54.1,56.5,49.6,46.0,93,69,51,30.25,30.02,23,9,25,0.07
2014-5-14,72.7,61.6,52.5,53.1,46.1,36.0,94,62,29,30.27,30.15,24,6,24,0.23
2014-5-15,83.5,67.4,51.3,49.3,43.5,34.0,86,49,19,30.23,30.04,21,6,22,0.00
2014-5-16,86.7,71.9,57.4,55.9,50.1,44.2,78,49,23,30.11,29.84,23,6,25,0.00
2014-5-17,83.8,74.4,64.0,61.0,53.5,42.8,67,49,35,29.99,29.83,22,6,26,0.00
2014-5-18,84.9,74.4,64.4,63.5,60.4,55.8,86,63,44,30.05,29.92,24,8,24,0.00
2014-5-19,86.2,75.7,65.7,63.7,61.5,59.2,84,63,45,30.01,29.86,31,10,33,0.00
2014-5-20,88.0,78.3,69.4,64.9,63.0,60.1,79,61,42,30.00,29.90,34,11,34,0.00
2014-5-21,88.3,78.4,69.4,66.9,63.8,62.1,82,62,45,30.04,29.92,26,8,26,0.00
2014-5-22,88.0,78.2,68.7,68.7,65.5,62.8,86,66,48,30.08,29.93,22,7,23,0.00
2014-5-23,82.8,76.8,72.0,68.9,66.2,63.3,79,70,58,30.06,29.96,19,6,19,0.00
2014-5-24,87.3,78.6,71.8,69.8,66.6,64.9,80,68,51,30.03,29.91,21,6,23,0.00
2014-5-25,87.8,75.4,68.0,70.9,68.4,65.1,96,80,53,29.98,29.85,31,6,31,1.34
2014-5-26,80.8,74.0,70.3,72.1,67.3,63.3,92,80,64,30.03,29.89,19,5,19,0.07
2014-5-27,79.5,70.5,65.7,68.5,65.5,63.3,97,85,60,29.96,29.81,10,3,16,0.24
2014-5-28,84.9,74.4,65.8,66.9,64.9,61.3,97,74,48,29.92,29.82,18,4,18,0.00
2014-5-29,89.4,78.6,66.6,68.5,65.6,62.6,93,66,45,29.88,29.76,15,4,17,0.00
2014-5-30,87.6,77.5,69.4,69.6,67.4,65.1,91,72,49,29.87,29.78,16,4,17,0.00
2014-5-31,87.4,77.1,70.9,74.3,70.2,68.4,93,80,57,29.93,29.84,16,4,16,0.01
2014-6-1,90.9,81.0,72.0,73.0,70.4,68.0,93,72,50,29.94,29.78,20,6,22,0.00
2014-6-2,91.6,81.8,74.3,72.7,70.4,67.8,87,69,50,29.98,29.80,22,7,23,0.00
2014-6-3,92.3,82.9,75.0,73.9,71.3,68.7,89,69,51,29.99,29.83,19,6,20,0.00
2014-6-4,92.8,83.7,75.0,74.1,71.5,69.6,90,68,51,29.84,29.72,24,8,25,0.00
2014-6-5,90.1,82.5,74.5,74.5,71.8,70.0,87,71,55,29.82,29.72,25,7,25,0.00
2014-6-6,92.5,83.3,75.7,74.1,71.3,68.0,86,69,50,29.93,29.75,20,6,25,0.00
2014-6-7,94.8,85.3,75.6,71.8,70.2,67.5,84,62,43,29.91,29.78,22,7,22,0.00
2014-6-8,88.3,80.2,70.2,74.1,70.3,65.8,93,73,55,29.96,29.73,20,5,21,0.08
2014-6-9,80.1,72.8,63.7,73.6,65.6,58.3,96,79,57,29.81,29.70,32,5,36,0.90
2014-6-10,85.5,74.9,65.5,63.7,60.6,56.1,78,62,46,29.84,29.72,23,7,25,0.00
2014-6-11,94.5,80.8,66.7,68.4,64.6,61.2,89,61,37,29.88,29.71,19,4,19,0.00
2014-6-12,84.6,78.5,70.9,73.2,69.6,66.4,90,75,60,29.95,29.68,28,6,29,0.10
2014-6-13,90.3,81.0,72.9,72.3,69.1,66.4,86,68,51,29.98,29.84,16,5,17,0.00
2014-6-14,89.8,82.1,74.3,74.5,71.2,69.3,86,71,55,29.89,29.74,19,8,23,0.00
2014-6-15,93.4,83.7,75.7,73.4,71.2,69.4,85,67,49,29.90,29.74,32,9,32,0.00
2014-6-16,91.8,81.8,75.9,73.0,71.5,68.5,88,72,51,29.98,29.85,25,8,25,0.00
2014-6-17,92.8,82.3,77.2,73.4,71.7,68.5,85,72,48,29.96,29.84,25,8,25,0.00
2014-6-18,94.1,83.0,76.5,74.5,71.4,68.2,85,69,46,29.95,29.85,34,9,36,0.00
2014-6-19,94.3,84.8,75.9,74.3,71.6,68.5,87,66,45,30.02,29.91,23,7,26,0.00
2014-6-20,94.1,84.9,77.2,73.2,69.4,62.6,82,61,37,30.06,29.94,17,5,17,0.00
2014-6-21,89.8,83.1,78.1,72.5,70.3,64.9,80,66,49,30.00,29.86,19,4,19,0.00
2014-6-22,81.3,74.9,69.1,73.4,70.6,66.9,96,87,72,29.95,29.80,19,4,19,0.48
2014-6-23,88.0,77.2,67.5,72.5,69.5,65.8,96,79,55,29.94,29.76,33,5,35,0.39
2014-6-24,93.6,78.4,70.3,75.0,69.4,65.3,94,75,51,30.01,29.90,28,3,29,0.22
2014-6-25,88.0,74.6,69.6,77.0,71.4,67.6,97,90,67,30.03,29.91,26,3,26,0.57
2014-6-26,89.1,78.9,71.1,73.9,71.5,69.3,96,80,54,30.00,29.81,22,6,25,0.01
2014-6-27,90.9,80.7,73.6,75.0,71.8,68.9,87,76,56,29.88,29.74,28,9,28,0.00
2014-6-28,89.1,82.3,76.5,76.8,73.7,71.6,89,76,60,29.88,29.78,26,8,27,0.00
2014-6-29,94.1,85.8,79.2,76.3,73.7,71.6,85,68,52,29.97,29.86,30,9,30,0.00
2014-6-30,95.7,85.3,76.1,73.2,70.9,66.2,85,64,40,29.94,29.79,29,10,30,0.00
2014-7-1,94.8,84.6,75.4,73.4,71.4,67.6,86,66,43,29.95,29.79,26,6,30,0.00
2014-7-2,94.5,84.9,78.3,72.3,69.9,65.5,77,62,41,30.05,29.91,17,5,18,0.00
2014-7-3,87.1,78.0,68.7,72.3,67.8,65.7,93,72,51,30.17,30.03,25,5,25,0.21
2014-7-4,95.0,82.8,74.5,72.0,69.5,66.2,83,65,44,30.19,30.08,20,4,21,0.00
2014-7-5,94.3,83.4,74.5,74.5,70.9,68.5,86,67,47,30.16,30.00,16,6,19,0.00
2014-7-6,95.4,84.3,74.1,72.5,69.4,65.3,87,63,41,30.03,29.90,16,5,16,0.00
2014-7-7,97.5,85.6,76.6,73.4,69.8,65.3,82,61,41,29.96,29.85,18,5,18,0.00
2014-7-8,99.0,87.4,77.9,75.4,69.6,64.4,77,57,36,29.97,29.86,20,5,20,0.00
2014-7-9,98.1,87.4,77.7,72.9,67.9,62.4,70,54,38,30.02,29.87,15,4,18,0.00
2014-7-10,97.9,87.5,77.7,72.1,66.4,60.6,73,51,31,30.01,29.88,19,6,19,0.00
2014-7-11,97.5,86.6,76.1,69.3,65.1,59.2,73,51,34,30.08,29.98,22,6,22,0.00
2014-7-12,99.0,87.9,76.5,68.7,65.0,56.3,70,49,29,30.13,29.98,18,5,19,0.00
2014-7-13,100.8,89.5,78.1,72.0,67.9,61.3,73,51,30,30.06,29.91,15,4,15,0.00
2014-7-14,101.7,85.9,78.6,76.3,69.8,65.8,81,60,34,29.96,29.85,22,4,22,0.08
2014-7-15,93.0,82.9,75.4,72.3,59.7,46.6,85,50,25,30.03,29.91,22,6,23,0.00
2014-7-16,93.4,79.3,68.2,71.4,62.9,51.8,91,59,39,30.00,29.83,27,6,27,0.53
2014-7-17,76.8,71.2,66.0,72.0,68.0,64.6,97,90,77,29.94,29.84,22,7,25,1.08
2014-7-18,77.2,69.3,63.7,66.7,64.0,61.7,95,84,68,30.00,29.92,15,5,17,0.09
2014-7-19,77.4,71.5,67.3,66.2,64.7,63.1,90,80,67,30.03,29.96,14,3,14,0.00
2014-7-20,91.9,78.8,66.6,75.0,69.5,64.4,94,75,55,30.03,29.89,14,4,14,0.00
2014-7-21,97.3,84.6,73.8,78.4,72.7,68.0,90,70,41,30.02,29.91,13,5,14,0.00
2014-7-22,97.9,86.7,77.4,77.5,73.0,68.9,84,65,42,30.04,29.96,14,5,14,0.00
2014-7-23,96.6,84.9,74.1,73.8,70.8,67.1,85,64,45,30.08,29.95,24,4,26,0.01
2014-7-24,96.1,83.8,73.6,73.2,69.2,64.9,90,64,40,30.03,29.90,17,4,17,0.00
2014-7-25,101.1,87.4,75.6,73.9,71.0,64.8,88,61,35,29.98,29.84,20,5,21,0.00
2014-7-26,100.8,89.5,79.5,73.6,70.2,63.9,77,55,34,29.96,29.83,19,6,21,0.00
2014-7-27,103.5,90.6,79.5,72.1,69.9,63.1,77,53,30,29.99,29.90,17,5,17,0.00
2014-7-28,93.7,86.6,80.4,75.4,68.8,62.1,78,56,39,30.09,29.96,25,5,27,0.00
2014-7-29,86.2,79.2,73.6,67.5,63.6,61.0,69,59,49,30.11,30.00,13,2,14,0.00
2014-7-30,88.3,80.4,74.7,73.9,70.3,65.1,94,72,60,30.04,29.85,24,7,24,0.10
2014-7-31,81.0,73.6,70.2,74.3,69.7,65.8,95,88,72,30.01,29.86,23,7,26,0.14
2014-8-1,82.0,73.1,68.7,69.6,67.3,66.0,93,83,65,30.04,29.97,15,5,16,0.00
2014-8-2,89.6,77.7,66.2,70.0,67.1,64.6,95,72,47,30.09,29.98,16,4,16,0.00
2014-8-3,91.8,81.6,71.4,70.9,68.6,65.7,91,67,46,30.07,29.96,17,4,18,0.00
2014-8-4,93.6,83.5,74.5,73.2,68.4,62.2,87,63,40,30.05,29.94,16,4,16,0.00
2014-8-5,97.7,83.8,74.7,76.1,70.8,66.0,92,67,40,30.05,29.93,28,4,29,0.17
2014-8-6,98.8,86.9,77.4,76.3,71.5,66.9,91,63,39,29.99,29.83,20,6,21,0.27
2014-8-7,99.0,88.5,78.1,75.9,71.5,65.8,79,59,38,29.90,29.74,17,5,17,0.00
2014-8-8,103.8,88.8,80.4,75.9,71.7,66.9,79,59,32,29.89,29.78,40,6,52,0.20
2014-8-9,102.2,89.6,79.5,75.4,70.8,64.9,76,56,33,29.94,29.82,27,5,28,0.00
2014-8-10,102.6,88.9,79.9,74.1,70.5,64.9,78,57,31,29.98,29.86,16,4,16,0.00
2014-8-11,96.1,86.5,79.9,72.7,67.9,63.5,72,55,37,30.03,29.93,18,4,21,0.00
2014-8-12,93.4,84.4,76.1,70.7,63.0,55.6,77,51,31,30.06,29.96,21,5,21,0.00
2014-8-13,94.6,82.4,70.9,63.9,60.3,56.8,70,49,30,30.08,29.95,15,4,16,0.00
2014-8-14,96.3,84.0,73.8,66.4,63.5,61.5,71,52,34,30.04,29.91,16,4,16,0.00
2014-8-15,99.9,86.6,74.8,72.9,66.8,63.1,73,54,34,29.97,29.80,19,6,19,0.00
2014-8-16,101.7,84.3,75.2,74.5,71.6,66.4,89,68,35,29.89,29.80,34,6,36,0.59
2014-8-17,85.8,77.7,69.4,74.8,72.4,68.0,96,84,64,29.99,29.84,23,4,23,1.98
2014-8-18,92.8,82.6,73.8,78.4,73.7,70.0,91,76,60,29.94,29.80,17,4,17,0.00
2014-8-19,94.8,85.7,77.2,74.8,70.5,64.9,78,62,44,29.90,29.78,24,5,24,0.00
2014-8-20,97.2,86.6,78.4,75.2,70.8,66.2,81,61,39,29.93,29.83,26,8,30,0.00
2014-8-21,98.1,87.6,78.1,75.7,71.1,63.1,85,61,36,29.98,29.88,26,8,26,0.00
2014-8-22,99.0,88.8,79.2,74.8,69.5,59.2,84,56,30,30.00,29.88,26,7,26,0.00
2014-8-23,99.9,88.9,79.0,70.5,67.2,60.3,72,51,30,29.96,29.83,20,6,20,0.00
2014-8-24,99.7,89.0,78.8,73.0,68.6,63.5,71,53,34,29.91,29.80,18,5,19,0.00
2014-8-25,100.4,89.5,79.0,73.8,69.2,62.6,75,53,33,29.94,29.82,16,4,16,0.00
2014-8-26,98.2,88.5,80.2,75.0,71.2,68.2,75,58,41,30.00,29.89,22,5,22,0.00
2014-8-27,95.7,86.2,78.4,72.9,69.3,61.3,81,59,42,30.03,29.90,12,4,14,0.00
2014-8-28,96.6,86.0,76.6,72.3,67.0,61.3,73,54,36,29.95,29.78,19,5,20,0.00
2014-8-29,93.4,81.3,70.3,72.7,69.6,65.3,92,69,47,29.90,29.79,18,4,20,0.15
2014-8-30,95.2,83.9,75.7,75.6,71.8,68.9,88,69,47,29.93,29.81,14,4,16,0.00
2014-8-31,95.9,85.2,75.9,75.6,72.2,69.6,88,67,47,29.94,29.80,25,7,25,0.00
2014-9-1,96.3,86.0,76.8,75.9,71.6,68.7,84,64,44,29.88,29.78,25,8,26,0.00
2014-9-2,98.4,88.0,78.1,75.4,72.4,68.7,83,61,41,29.96,29.82,24,7,24,0.00
2014-9-3,97.2,86.3,77.4,74.1,71.6,67.8,84,64,42,29.96,29.85,22,7,26,0.00
2014-9-4,97.9,87.0,78.1,75.2,70.5,67.5,79,59,41,30.01,29.90,20,6,26,0.00
2014-9-5,97.5,86.7,77.5,74.8,69.6,64.8,79,59,37,30.06,29.91,14,4,16,0.00
2014-9-6,97.9,83.6,74.1,74.7,70.5,66.6,83,66,42,30.06,29.91,24,4,25,0.00
2014-9-7,86.9,77.7,70.7,73.0,68.7,66.0,87,75,58,30.07,29.94,14,4,14,0.00
2014-9-8,94.5,83.2,73.2,74.3,70.9,69.4,90,69,48,30.01,29.86,14,4,17,0.00
2014-9-9,97.9,87.1,77.7,73.6,69.9,66.0,79,59,37,29.93,29.74,21,6,22,0.00
2014-9-10,100.6,88.8,78.1,73.6,70.3,67.6,76,56,38,29.78,29.68,25,8,27,0.00
2014-9-11,88.2,80.9,71.8,73.4,70.4,67.1,85,71,53,29.98,29.78,18,5,18,0.00
2014-9-12,72.0,66.4,58.6,69.3,63.6,55.2,96,91,85,30.22,29.96,23,7,23,0.30
2014-9-13,69.3,61.8,55.0,59.5,55.4,52.0,92,80,67,30.28,30.17,19,6,22,0.00
2014-9-14,78.6,69.6,62.2,66.0,62.5,58.5,93,79,65,30.23,30.09,11,2,11,0.00
2014-9-15,85.1,77.6,70.3,72.3,68.4,64.8,88,74,60,30.13,30.04,7,2,10,0.01
2014-9-16,91.2,82.5,75.2,73.2,70.3,67.1,87,68,50,30.09,29.92,13,3,13,0.00
2014-9-17,95.5,83.0,75.2,73.9,70.8,66.4,89,68,44,29.97,29.80,30,3,30,0.01
2014-9-18,86.9,79.9,73.9,74.7,71.7,65.8,92,77,63,29.90,29.80,13,4,16,0.00
2014-9-19,90.0,78.8,69.4,72.9,68.9,65.3,93,73,52,29.95,29.85,15,5,16,0.00
2014-9-20,92.8,82.3,73.6,72.7,67.9,60.1,89,65,36,29.98,29.88,15,5,16,0.00
2014-9-21,94.5,83.0,72.0,70.2,66.0,60.4,81,59,34,30.07,29.95,18,2,20,0.00
2014-9-22,88.3,78.6,71.4,69.6,56.3,49.1,73,48,27,30.17,30.06,20,7,24,0.00
2014-9-23,86.7,73.8,63.3,56.8,53.3,45.9,72,51,31,30.18,30.03,13,5,15,0.00
2014-9-24,88.3,74.7,62.1,55.8,51.3,44.6,74,48,23,30.17,30.06,13,5,14,0.00
2014-9-25,87.6,76.2,64.9,61.0,56.7,53.6,76,53,35,30.17,30.05,12,4,13,0.00
2014-9-26,88.5,76.7,66.2,66.0,59.0,54.7,81,57,34,30.11,29.99,11,4,13,0.00
2014-9-27,89.1,77.1,67.5,65.7,61.0,57.9,80,59,39,30.06,29.93,15,4,16,0.00
2014-9-28,90.0,77.8,67.3,66.2,62.9,59.7,88,62,38,30.05,29.95,14,4,17,0.00
2014-9-29,89.1,77.6,67.6,66.6,63.0,60.3,80,62,40,30.00,29.86,14,4,17,0.00
2014-9-30,90.9,80.3,70.9,72.3,67.2,64.8,84,66,45,29.88,29.70,17,5,18,0.00
2014-10-1,93.2,82.3,72.5,72.7,69.6,67.3,91,67,47,29.79,29.67,18,6,21,0.00
2014-10-2,92.7,79.3,68.7,74.3,69.3,54.5,92,72,51,29.92,29.60,25,7,35,0.20
2014-10-3,80.8,68.4,57.7,57.7,52.2,44.4,89,59,34,30.21,29.92,19,5,22,0.00
2014-10-4,79.2,65.4,50.5,45.9,39.3,33.4,68,41,21,30.22,29.93,14,4,15,0.00
2014-10-5,86.0,72.9,60.1,65.1,56.2,40.8,79,57,40,29.93,29.76,20,6,21,0.00
2014-10-6,85.3,75.1,64.9,70.9,65.2,60.6,94,72,59,29.88,29.77,20,6,26,0.86
2014-10-7,96.4,81.3,68.9,73.6,66.9,61.9,91,65,35,29.89,29.79,19,6,24,0.00
2014-10-8,89.8,79.9,72.1,72.9,69.5,67.8,90,72,53,29.98,29.88,21,7,21,0.00
2014-10-9,91.2,80.6,74.5,72.9,70.3,67.3,89,72,48,29.95,29.80,25,7,25,0.00
2014-10-10,91.8,81.0,64.0,71.2,67.4,61.0,92,65,44,29.92,29.77,38,6,38,0.19
2014-10-11,64.9,59.2,56.7,63.5,55.9,52.2,96,89,82,30.08,29.86,17,5,17,0.29
2014-10-12,75.4,63.5,53.4,69.4,57.9,51.1,94,83,62,30.03,29.61,30,5,30,0.00
2014-10-13,74.8,62.4,57.4,71.2,56.6,48.4,97,82,66,29.94,29.48,38,9,40,1.17
2014-10-14,75.6,62.9,50.7,48.4,44.2,38.8,78,54,27,30.10,29.93,28,6,28,0.00
2014-10-15,82.8,67.5,54.3,51.4,47.1,40.1,81,51,24,30.09,29.94,9,2,9,0.00
2014-10-16,88.5,73.4,61.0,55.2,49.4,45.1,68,46,23,29.94,29.76,22,5,24,0.00
2014-10-17,86.5,73.5,61.0,59.7,54.5,49.3,75,53,34,29.95,29.78,20,4,23,0.00
2014-10-18,81.5,70.8,63.3,61.0,55.6,50.0,72,59,49,30.09,29.94,21,6,21,0.00
2014-10-19,78.1,67.1,58.5,58.5,55.2,52.3,82,67,49,30.15,30.02,17,4,18,0.00
2014-10-20,83.8,70.6,60.3,64.4,58.5,52.7,83,66,49,30.09,29.97,12,4,12,0.00
2014-10-21,84.2,71.8,61.3,62.4,59.5,57.0,90,67,44,30.09,29.98,15,3,15,0.00
2014-10-22,81.9,71.9,63.9,64.4,60.1,54.3,89,68,47,30.14,30.03,16,4,16,0.00
2014-10-23,82.2,70.9,64.4,60.6,56.5,54.0,71,61,45,30.14,30.03,15,5,16,0.00
2014-10-24,85.1,72.2,63.0,64.6,59.3,55.8,80,65,48,30.15,30.03,14,4,15,0.00
2014-10-25,88.9,75.7,64.9,66.6,61.4,58.3,81,63,43,30.11,30.00,11,4,13,0.00
2014-10-26,88.2,76.3,67.3,63.5,59.6,54.5,79,58,35,30.00,29.82,22,6,23,0.00
2014-10-27,84.7,74.7,66.7,63.5,60.3,55.4,83,62,43,29.84,29.73,33,9,33,0.00
2014-10-28,77.7,72.0,65.5,65.1,60.1,48.2,87,67,49,30.10,29.80,28,6,28,0.00
2014-10-29,77.7,66.1,54.7,54.1,47.2,40.1,83,53,29,30.21,30.09,15,4,15,0.00
2014-10-30,80.1,65.9,57.6,61.3,52.3,45.0,86,63,39,30.15,30.03,14,4,17,0.02
2014-10-31,66.6,58.6,50.2,54.7,42.8,30.9,77,57,42,30.36,30.14,23,7,23,0.00
2014-11-1,63.9,50.9,40.5,34.0,31.3,27.5,71,49,30,30.45,30.29,18,5,19,0.00
2014-11-2,67.5,55.5,46.4,47.7,40.3,32.0,69,57,45,30.34,30.16,21,8,26,0.00
2014-11-3,75.9,65.3,55.2,60.8,55.0,46.8,85,70,55,30.18,30.04,27,9,27,0.00
2014-11-4,68.4,60.1,52.2,63.7,57.3,50.7,95,91,76,30.22,30.02,28,6,28,0.67
2014-11-5,56.7,53.8,50.7,55.0,52.3,49.6,96,95,93,30.26,30.16,12,2,12,0.15
2014-11-6,71.8,57.9,44.4,51.4,43.7,35.1,97,64,36,30.34,30.24,17,4,18,0.01
2014-11-7,68.9,56.4,43.3,43.9,38.9,32.2,81,53,36,30.30,30.01,19,4,19,0.00
2014-11-8,69.3,57.6,48.9,48.4,41.3,34.5,84,57,30,30.16,29.99,25,5,26,0.00
2014-11-9,73.2,57.4,42.4,45.0,41.5,37.8,88,59,32,30.16,29.82,23,4,23,0.00
2014-11-10,79.2,66.2,54.9,58.3,50.3,43.5,73,58,39,29.83,29.58,36,10,36,0.00
2014-11-11,66.9,45.0,37.2,58.5,31.3,24.3,80,59,46,30.27,29.64,28,10,31,0.00
2014-11-12,39.6,34.6,30.7,24.3,18.9,13.3,62,53,43,30.53,30.27,26,9,26,0.00
2014-11-13,38.1,33.1,29.1,16.0,11.1,8.2,52,40,31,30.64,30.50,17,7,23,0.00
2014-11-14,41.5,35.3,28.2,20.3,17.0,12.9,58,47,36,30.50,30.31,11,3,12,0.00
2014-11-15,45.3,41.4,38.7,39.9,30.8,20.3,94,68,47,30.32,30.05,21,7,22,0.01
2014-11-16,40.6,36.7,28.6,39.2,34.2,24.6,95,90,79,30.29,30.01,26,8,26,0.04
2014-11-17,44.2,33.3,25.0,25.2,21.0,16.7,87,63,37,30.47,30.29,21,6,24,0.00
2014-11-18,58.3,41.9,29.1,27.3,21.9,18.9,74,48,24,30.51,30.30,18,5,18,0.00
2014-11-19,65.1,50.3,38.8,40.8,31.7,21.6,74,49,36,30.30,30.12,20,5,20,0.00
2014-11-20,73.2,58.5,45.3,58.3,48.6,40.6,87,72,40,30.13,29.97,23,5,23,0.00
2014-11-21,67.8,63.1,59.0,62.6,59.9,57.2,95,89,81,30.11,30.01,24,7,24,0.02
2014-11-22,63.0,59.9,56.8,59.9,58.3,55.8,97,94,88,30.07,29.64,29,7,29,0.51
2014-11-23,77.4,60.8,48.6,59.0,49.8,38.5,98,72,26,29.82,29.35,38,8,38,0.01
2014-11-24,63.1,50.0,40.8,39.2,32.3,24.1,81,55,26,30.16,29.81,13,3,14,0.00
2014-11-25,63.3,49.8,37.8,36.7,32.0,28.9,82,53,30,30.31,30.09,18,3,18,0.00
2014-11-26,65.5,52.4,41.5,38.3,33.8,29.8,67,50,34,30.40,30.02,19,5,19,0.00
2014-11-27,61.3,48.6,38.7,31.1,27.5,23.4,68,46,25,30.56,30.34,16,3,18,0.00
2014-11-28,69.1,57.3,44.2,52.7,42.4,28.4,69,58,45,30.35,29.97,30,8,30,0.00
2014-11-29,77.5,64.8,53.8,59.7,53.0,47.8,87,67,43,29.97,29.82,30,10,33,0.00
2014-11-30,79.5,69.7,63.3,62.4,60.1,57.7,90,73,50,30.09,29.87,30,8,30,0.00
2014-12-1,65.7,38.9,31.8,61.0,26.4,21.0,85,61,47,30.48,30.09,24,9,24,0.00
2014-12-2,48.2,39.1,31.5,41.4,27.0,21.2,77,62,46,30.47,30.16,14,4,14,0.00
2014-12-3,58.8,54.1,48.2,54.5,49.3,41.4,87,84,78,30.22,30.12,15,5,16,0.00
2014-12-4,64.4,60.2,56.3,59.7,56.7,53.6,92,88,82,30.18,30.02,16,5,17,0.00
2014-12-5,77.4,66.8,56.7,65.7,60.9,52.3,97,82,60,30.19,29.94,23,6,23,0.02
2014-12-6,67.6,56.6,47.5,52.3,48.7,43.5,87,76,52,30.41,30.19,19,7,19,0.00
2014-12-7,54.5,49.6,44.2,47.5,45.6,41.5,95,86,76,30.42,30.26,16,3,16,0.00
2014-12-8,58.1,48.8,43.7,48.7,45.0,41.5,95,87,70,30.37,30.28,12,2,12,0.00
2014-12-9,57.2,46.9,41.4,50.9,44.7,40.3,98,92,78,30.39,30.24,8,2,8,0.01
2014-12-10,55.9,50.6,44.8,48.2,46.1,42.8,95,85,74,30.27,30.14,15,5,15,0.01
2014-12-11,67.5,58.6,52.3,58.6,53.6,47.8,94,84,73,30.20,30.10,17,5,17,0.00
2014-12-12,72.1,63.1,58.1,62.2,58.4,56.7,95,85,68,30.24,30.14,11,5,15,0.02
2014-12-13,71.4,63.5,57.9,59.5,57.0,53.8,91,80,64,30.19,30.01,24,8,25,0.00
2014-12-14,65.8,63.3,60.3,63.3,60.6,57.6,95,91,84,30.02,29.76,29,8,29,0.21
2014-12-15,64.2,57.4,49.1,61.7,41.2,32.2,92,57,36,30.16,29.76,24,8,26,0.01
2014-12-16,52.3,45.9,39.6,34.3,31.7,28.0,70,58,48,30.37,30.16,18,6,21,0.00
2014-12-17,45.7,43.0,40.8,40.6,36.7,32.7,95,79,68,30.31,30.06,20,5,20,0.29
2014-12-18,48.4,45.1,40.6,46.4,43.4,39.2,97,94,88,30.20,30.11,12,3,13,0.02
2014-12-19,48.6,46.5,45.0,46.2,44.5,43.0,95,93,90,30.22,30.11,15,4,15,0.05
2014-12-20,47.3,45.7,44.4,45.0,43.4,42.1,94,92,89,30.27,30.18,11,2,11,0.00
2014-12-21,52.2,49.2,46.8,49.3,45.7,43.5,92,88,83,30.18,29.71,22,8,23,0.00
2014-12-22,67.3,56.7,51.6,52.7,48.2,44.2,92,75,48,29.72,29.54,24,6,25,0.01
2014-12-23,52.9,48.5,43.5,46.4,39.2,30.7,93,71,51,29.94,29.65,24,7,24,0.35
2014-12-24,52.3,44.4,39.4,35.1,33.0,31.3,80,65,48,30.06,29.93,21,8,27,0.00
2014-12-25,62.1,50.8,39.6,44.2,32.5,27.9,73,52,30,30.03,29.90,38,9,38,0.00
2014-12-26,64.2,58.2,51.4,61.2,54.0,44.1,95,86,73,29.97,29.85,21,7,23,0.00
2014-12-27,62.6,41.9,35.1,61.5,37.4,27.7,96,84,74,30.32,29.96,30,10,30,0.06
2014-12-28,48.9,39.0,34.0,29.5,26.7,24.1,75,62,42,30.32,30.14,14,4,15,0.00
2014-12-29,54.1,41.8,33.1,38.5,32.6,27.3,88,71,48,30.26,30.06,15,6,18,0.00
2014-12-30,46.8,41.7,35.6,37.9,31.5,27.9,87,68,50,30.57,30.26,23,7,23,0.00
2014-12-31,37.0,34.1,32.2,27.9,25.6,24.4,77,71,65,30.64,30.42,19,5,19,0.00
2015-1-1,36.7,34.5,32.5,35.4,31.1,24.4,95,88,67,30.43,30.21,12,2,12,0.56
2015-1-2,40.5,38.9,36.7,39.7,37.7,35.4,97,96,95,30.26,29.93,14,4,14,0.34